createdAt,value
2019-02-16T00:00:30.190Z,7.30
2019-02-16T00:04:33.171Z,7.40
2019-02-16T00:08:36.163Z,7.30
2019-02-16T00:12:39.166Z,7.30
2019-02-16T00:16:43.276Z,7.20
2019-02-16T00:20:46.257Z,7.10
2019-02-16T00:24:49.266Z,7.00
2019-02-16T00:28:52.258Z,7.00
2019-02-16T00:32:55.854Z,6.80
2019-02-16T00:36:58.958Z,6.50
2019-02-16T00:41:01.958Z,6.30
2019-02-16T00:45:05.649Z,6.40
2019-02-16T00:49:08.659Z,6.40
2019-02-16T00:53:11.667Z,6.70
2019-02-16T00:57:14.669Z,6.70
2019-02-16T01:01:17.674Z,6.40
2019-02-16T01:05:20.683Z,6.20
2019-02-16T01:09:23.670Z,6.20
2019-02-16T01:13:26.699Z,6.30
2019-02-16T01:17:31.082Z,6.50
2019-02-16T01:21:34.090Z,6.50
2019-02-16T01:25:37.091Z,6.50
2019-02-16T01:29:40.089Z,6.50
2019-02-16T01:33:43.081Z,6.60
2019-02-16T01:37:46.098Z,6.60
2019-02-16T01:41:49.102Z,6.40
2019-02-16T01:45:52.103Z,6.40
2019-02-16T01:49:55.120Z,6.30
2019-02-16T01:53:58.170Z,6.20
2019-02-16T01:58:01.209Z,6.00
2019-02-16T02:02:05.264Z,6.00
2019-02-16T02:06:08.301Z,5.90
2019-02-16T02:10:12.423Z,5.70
2019-02-16T02:14:15.420Z,5.70
2019-02-16T02:18:19.769Z,5.80
2019-02-16T02:22:22.769Z,5.80
2019-02-16T02:26:25.783Z,5.80
2019-02-16T02:30:29.836Z,5.90
2019-02-16T02:34:32.839Z,5.90
2019-02-16T02:38:36.854Z,5.90
2019-02-16T02:42:39.845Z,5.80
2019-02-16T02:46:42.836Z,5.80
2019-02-16T02:50:45.943Z,5.70
2019-02-16T02:54:48.946Z,5.70
2019-02-16T02:58:51.962Z,5.70
2019-02-16T03:02:54.961Z,5.70
2019-02-16T03:06:57.963Z,5.60
2019-02-16T03:11:01.001Z,5.60
2019-02-16T03:15:05.002Z,5.50
2019-02-16T03:19:08.606Z,5.30
2019-02-16T03:23:16.170Z,5.20
2019-02-16T03:27:32.129Z,5.10
2019-02-16T03:31:47.952Z,5.10
2019-02-16T03:36:07.001Z,5.00
2019-02-16T03:40:11.399Z,4.80
2019-02-16T03:44:14.424Z,4.80
2019-02-16T03:48:17.426Z,4.90
2019-02-16T03:52:20.427Z,5.00
2019-02-16T03:56:23.468Z,5.10
2019-02-16T04:00:27.570Z,5.00
2019-02-16T04:04:30.547Z,4.70
2019-02-16T04:08:33.545Z,4.80
2019-02-16T04:12:36.534Z,4.80
2019-02-16T04:16:39.549Z,4.60
2019-02-16T04:20:44.337Z,4.70
2019-02-16T04:24:47.346Z,4.70
2019-02-16T04:28:50.359Z,4.70
2019-02-16T04:32:53.366Z,4.70
2019-02-16T04:36:56.370Z,4.60
2019-02-16T04:40:59.364Z,4.60
2019-02-16T04:45:05.022Z,4.60
2019-02-16T04:49:08.013Z,4.50
2019-02-16T04:53:11.023Z,4.20
2019-02-16T04:57:14.031Z,4.10
2019-02-16T05:01:17.042Z,3.90
2019-02-16T05:05:20.054Z,3.70
2019-02-16T05:09:23.102Z,3.90
2019-02-16T05:13:26.096Z,4.10
2019-02-16T05:17:29.091Z,4.20
2019-02-16T05:21:34.069Z,4.10
2019-02-16T05:25:37.118Z,3.90
2019-02-16T05:29:40.162Z,3.60
2019-02-16T05:33:43.167Z,3.70
2019-02-16T05:37:46.177Z,3.90
2019-02-16T05:41:49.169Z,3.90
2019-02-16T05:45:52.153Z,4.00
2019-02-16T05:49:55.168Z,3.80
2019-02-16T05:53:58.204Z,3.60
2019-02-16T05:58:01.202Z,3.70
2019-02-16T06:02:04.209Z,3.90
2019-02-16T06:06:07.242Z,3.90
2019-02-16T06:10:10.236Z,3.90
2019-02-16T06:14:13.506Z,3.60
2019-02-16T06:18:16.522Z,3.20
2019-02-16T06:22:20.892Z,3.30
2019-02-16T06:26:23.880Z,3.70
2019-02-16T06:30:26.887Z,3.80
2019-02-16T06:34:29.862Z,3.80
2019-02-16T06:38:32.862Z,3.70
2019-02-16T06:42:35.854Z,3.70
2019-02-16T06:46:38.889Z,3.60
2019-02-16T06:50:42.905Z,3.60
2019-02-16T06:54:45.900Z,3.60
2019-02-16T06:58:48.903Z,3.70
2019-02-16T07:02:51.908Z,3.80
2019-02-16T07:06:54.927Z,3.90
2019-02-16T07:10:58.005Z,3.90
2019-02-16T07:15:01.065Z,3.90
2019-02-16T07:19:08.462Z,4.00
2019-02-16T07:23:11.733Z,4.00
2019-02-16T07:27:14.802Z,4.00
2019-02-16T07:31:17.847Z,4.30
2019-02-16T07:35:20.836Z,4.90
2019-02-16T07:39:23.825Z,6.00
2019-02-16T07:43:43.381Z,7.20
2019-02-16T07:47:50.789Z,7.60
2019-02-16T07:52:07.561Z,8.80
2019-02-16T07:56:12.465Z,10.30
2019-02-16T08:00:17.353Z,11.50
2019-02-16T08:04:22.276Z,13.00
2019-02-16T08:08:43.971Z,13.80
2019-02-16T08:12:51.648Z,14.80
2019-02-16T08:17:11.638Z,16.10
2019-02-16T08:21:19.311Z,17.10
2019-02-16T08:25:31.995Z,18.00
2019-02-16T08:29:42.459Z,18.50
2019-02-16T08:33:59.322Z,18.90
2019-02-16T08:38:06.723Z,19.30
2019-02-16T08:42:17.756Z,19.30
2019-02-16T08:46:22.640Z,19.70
2019-02-16T08:50:29.456Z,19.80
2019-02-16T08:54:39.872Z,20.20
2019-02-16T08:58:50.567Z,20.20
2019-02-16T09:02:55.494Z,20.20
2019-02-16T09:07:07.172Z,20.50
2019-02-16T09:11:18.042Z,20.60
2019-02-16T09:15:34.876Z,20.20
2019-02-16T09:19:42.300Z,20.60
2019-02-16T09:23:47.212Z,21.00
2019-02-16T09:28:08.594Z,21.40
2019-02-16T09:32:13.496Z,21.30
2019-02-16T09:36:18.399Z,20.70
2019-02-16T09:40:35.980Z,20.30
2019-02-16T09:44:41.365Z,19.20
2019-02-16T09:48:52.192Z,17.40
2019-02-16T09:53:01.571Z,16.60
2019-02-16T09:57:16.370Z,15.50
2019-02-16T10:01:27.532Z,15.30
2019-02-16T10:05:44.872Z,15.60
2019-02-16T10:09:51.421Z,16.20
2019-02-16T10:13:56.783Z,16.20
2019-02-16T10:18:18.826Z,16.40
2019-02-16T10:22:23.873Z,16.40
2019-02-16T10:26:32.000Z,16.40
2019-02-16T10:30:38.269Z,16.30
2019-02-16T10:34:52.057Z,16.40
2019-02-16T10:39:06.069Z,16.80
2019-02-16T10:43:17.095Z,17.20
2019-02-16T10:47:30.571Z,17.10
2019-02-16T10:51:50.355Z,17.10
2019-02-16T10:55:55.254Z,17.10
2019-02-16T11:00:00.356Z,17.50
2019-02-16T11:04:05.262Z,17.30
2019-02-16T11:08:15.945Z,17.20
2019-02-16T11:12:35.920Z,17.00
2019-02-16T11:16:40.942Z,17.30
2019-02-16T11:20:48.370Z,17.10
2019-02-16T11:24:56.034Z,17.30
2019-02-16T11:29:04.043Z,17.20
2019-02-16T11:33:13.509Z,17.10
2019-02-16T11:37:18.602Z,17.10
2019-02-16T11:41:26.278Z,17.20
2019-02-16T11:45:33.934Z,17.00
2019-02-16T11:49:39.076Z,17.30
2019-02-16T11:53:44.020Z,17.10
2019-02-16T11:58:04.017Z,17.20
2019-02-16T12:02:14.815Z,17.40
2019-02-16T12:06:25.546Z,17.50
2019-02-16T12:10:31.516Z,17.30
2019-02-16T12:14:54.575Z,17.20
2019-02-16T12:19:02.308Z,17.20
2019-02-16T12:23:07.226Z,17.10
2019-02-16T12:27:12.126Z,17.20
2019-02-16T12:31:17.114Z,17.30
2019-02-16T12:35:26.359Z,17.40
2019-02-16T12:39:31.429Z,17.50
2019-02-16T12:43:36.317Z,17.60
2019-02-16T12:47:47.044Z,17.40
2019-02-16T12:52:08.890Z,17.30
2019-02-16T12:56:13.815Z,17.10
2019-02-16T13:00:18.764Z,17.00
2019-02-16T13:04:35.690Z,17.20
2019-02-16T13:08:40.626Z,17.50
2019-02-16T13:12:45.544Z,17.70
2019-02-16T13:16:50.511Z,17.80
2019-02-16T13:20:58.330Z,17.90
2019-02-16T13:25:03.341Z,17.90
2019-02-16T13:29:10.777Z,18.10
2019-02-16T13:33:24.619Z,18.30
2019-02-16T13:37:30.849Z,18.30
2019-02-16T13:41:38.832Z,18.20
2019-02-16T13:45:43.984Z,18.10
2019-02-16T13:49:54.007Z,17.60
2019-02-16T13:53:58.920Z,17.80
2019-02-16T13:58:21.935Z,18.00
2019-02-16T14:02:29.654Z,17.90
2019-02-16T14:06:37.336Z,18.00
2019-02-16T14:10:45.054Z,17.90
2019-02-16T14:15:01.995Z,18.00
2019-02-16T14:19:04.982Z,17.90
2019-02-16T14:23:07.997Z,18.00
2019-02-16T14:27:11.001Z,17.90
2019-02-16T14:31:15.905Z,17.70
2019-02-16T14:35:21.142Z,17.60
2019-02-16T14:39:26.805Z,17.60
2019-02-16T14:43:29.814Z,17.50
2019-02-16T14:47:32.828Z,17.20
2019-02-16T14:51:37.266Z,17.00
2019-02-16T14:55:40.244Z,16.90
2019-02-16T14:59:43.245Z,16.90
2019-02-16T15:03:46.242Z,16.80
2019-02-16T15:07:52.691Z,16.80
2019-02-16T15:11:55.877Z,16.80
2019-02-16T15:15:58.979Z,16.70
2019-02-16T15:20:05.002Z,16.70
2019-02-16T15:24:08.206Z,16.60
2019-02-16T15:28:12.359Z,16.60
2019-02-16T15:32:15.394Z,16.50
2019-02-16T15:36:23.943Z,16.30
2019-02-16T15:40:30.276Z,16.20
2019-02-16T15:44:33.811Z,16.20
2019-02-16T15:48:37.300Z,15.90
2019-02-16T15:52:47.562Z,15.80
2019-02-16T15:56:51.111Z,15.70
2019-02-16T16:00:54.461Z,15.50
2019-02-16T16:04:58.530Z,15.40
2019-02-16T16:09:06.593Z,15.20
2019-02-16T16:13:11.878Z,15.10
2019-02-16T16:17:31.980Z,14.90
2019-02-16T16:21:45.970Z,14.70
2019-02-16T16:25:50.870Z,14.50
2019-02-16T16:30:00.763Z,14.40
2019-02-16T16:34:08.480Z,14.20
2019-02-16T16:38:13.396Z,14.00
2019-02-16T16:42:24.794Z,13.70
2019-02-16T16:46:43.934Z,13.40
2019-02-16T16:51:12.172Z,13.20
2019-02-16T16:55:29.949Z,12.90
2019-02-16T16:59:41.029Z,12.70
2019-02-16T17:03:46.934Z,12.60
2019-02-16T17:07:52.906Z,12.40
2019-02-16T17:12:15.576Z,12.30
2019-02-16T17:16:27.383Z,12.20
2019-02-16T17:20:33.390Z,12.00
2019-02-16T17:24:44.253Z,11.90
2019-02-16T17:29:04.479Z,11.80
2019-02-16T17:33:18.078Z,11.40
2019-02-16T17:37:25.880Z,11.20
2019-02-16T17:41:46.087Z,11.10
2019-02-16T17:46:00.922Z,11.20
2019-02-16T17:50:26.987Z,11.20
2019-02-16T17:54:43.650Z,11.00
2019-02-16T17:58:52.179Z,10.80
2019-02-16T18:03:09.072Z,10.70
2019-02-16T18:07:17.035Z,10.50
2019-02-16T18:11:21.982Z,10.40
2019-02-16T18:15:26.905Z,10.30
2019-02-16T18:19:38.246Z,10.30
2019-02-16T18:23:52.203Z,10.10
2019-02-16T18:27:57.193Z,10.00
2019-02-16T18:32:02.113Z,9.90
2019-02-16T18:36:09.778Z,9.90
2019-02-16T18:40:14.780Z,9.80
2019-02-16T18:44:20.980Z,9.70
2019-02-16T18:48:26.979Z,9.60
2019-02-16T18:52:48.235Z,9.30
2019-02-16T18:57:09.585Z,9.30
2019-02-16T19:01:25.602Z,9.30
2019-02-16T19:05:30.485Z,9.20
2019-02-16T19:09:35.477Z,9.20
2019-02-16T19:13:42.922Z,9.20
2019-02-16T19:17:48.046Z,9.10
2019-02-16T19:21:53.185Z,8.80
2019-02-16T19:25:58.251Z,8.60
2019-02-16T19:30:15.479Z,8.60
2019-02-16T19:34:27.470Z,8.60
2019-02-16T19:38:32.371Z,8.60
2019-02-16T19:42:43.273Z,8.60
2019-02-16T19:46:54.192Z,8.50
2019-02-16T19:50:59.552Z,8.40
2019-02-16T19:55:08.944Z,8.40
2019-02-16T19:59:27.572Z,8.40
2019-02-16T20:03:32.522Z,8.40
2019-02-16T20:07:37.438Z,8.30
2019-02-16T20:11:54.098Z,8.10
2019-02-16T20:16:09.851Z,8.00
2019-02-16T20:20:14.746Z,7.90
2019-02-16T20:24:25.950Z,7.60
2019-02-16T20:28:30.861Z,7.70
2019-02-16T20:32:35.774Z,7.70
2019-02-16T20:36:40.683Z,7.70
2019-02-16T20:41:02.664Z,7.60
2019-02-16T20:45:11.967Z,7.50
2019-02-16T20:49:22.907Z,7.30
2019-02-16T20:53:29.081Z,7.40
2019-02-16T20:57:47.481Z,7.50
2019-02-16T21:01:53.474Z,7.50
2019-02-16T21:06:14.990Z,7.20
2019-02-16T21:10:32.339Z,7.20
2019-02-16T21:14:53.700Z,7.20
2019-02-16T21:18:58.598Z,7.20
2019-02-16T21:23:20.027Z,7.30
2019-02-16T21:27:24.931Z,7.40
2019-02-16T21:31:29.837Z,7.20
2019-02-16T21:35:52.666Z,7.00
2019-02-16T21:40:06.429Z,7.10
2019-02-16T21:44:26.226Z,7.10
2019-02-16T21:48:34.190Z,7.00
2019-02-16T21:52:44.661Z,7.00
2019-02-16T21:57:07.315Z,7.00
2019-02-16T22:01:12.219Z,6.90
2019-02-16T22:05:33.650Z,6.70
2019-02-16T22:09:45.259Z,6.50
2019-02-16T22:13:49.310Z,6.50
2019-02-16T22:17:53.370Z,6.50
2019-02-16T22:21:56.362Z,6.60
2019-02-16T22:25:59.367Z,6.50
2019-02-16T22:30:03.868Z,6.40
2019-02-16T22:34:06.842Z,6.30
2019-02-16T22:38:09.909Z,6.30
2019-02-16T22:42:12.919Z,6.40
2019-02-16T22:46:15.938Z,6.10
2019-02-16T22:50:18.995Z,6.00
2019-02-16T22:54:22.057Z,6.10
2019-02-16T22:58:28.871Z,6.20
2019-02-16T23:02:30.925Z,6.20
2019-02-16T23:06:33.947Z,6.30
2019-02-16T23:10:36.939Z,6.30
2019-02-16T23:14:39.995Z,6.40
2019-02-16T23:18:43.000Z,6.30
2019-02-16T23:22:46.011Z,6.40
2019-02-16T23:26:49.019Z,6.30
2019-02-16T23:30:52.024Z,6.30
2019-02-16T23:34:55.014Z,6.30
2019-02-16T23:38:58.010Z,6.20
2019-02-16T23:43:01.027Z,6.10
2019-02-16T23:47:04.016Z,6.00
2019-02-16T23:51:07.064Z,5.90
2019-02-16T23:55:10.091Z,5.90
2019-02-16T23:59:14.781Z,6.00
